Time;durP1;ratioP1;P1;durP2;ratioP2;P2;SDS_P1;SDS_P2;PMS_P1;PMS_P2;Temp;Humidity;BMP_temperature;BMP_pressure;BME280_temperature;BME280_humidity;BME280_pressure;Samples;Min_cycle;Max_cycle;Signal;HPM_P1;HPM_P2
2023/05/30 00:01:51;;;;;;;7.05;4.25;;;;;;;15.84;49.06;98670.38;5053788;28;20504;-68
2023/05/30 00:04:17;;;;;;;7.88;4.47;;;;;;;15.86;48.76;98670.91;5052066;28;20717;-68
2023/05/30 00:06:45;;;;;;;8.18;4.90;;;;;;;15.88;48.93;98668.63;5049250;28;20029;-68
2023/05/30 00:09:10;;;;;;;9.80;4.70;;;;;;;15.88;49.10;98665.03;5051132;28;20029;-67
2023/05/30 00:11:36;;;;;;;7.90;4.60;;;;;;;15.89;49.10;98667.47;5050101;28;20025;-68
2023/05/30 00:14:02;;;;;;;8.73;5.05;;;;;;;15.90;49.53;98673.81;5051734;28;20052;-68
2023/05/30 00:16:28;;;;;;;7.85;4.65;;;;;;;15.90;49.20;98671.03;5052145;28;20051;-68
2023/05/30 00:18:53;;;;;;;8.02;4.80;;;;;;;15.90;49.08;98677.38;5052368;28;20029;-68
2023/05/30 00:21:19;;;;;;;8.32;5.03;;;;;;;15.90;49.26;98665.50;5045500;28;20043;-68
2023/05/30 00:23:45;;;;;;;6.97;4.43;;;;;;;15.91;49.55;98670.69;5045948;28;20112;-68
2023/05/30 00:26:12;;;;;;;8.70;4.60;;;;;;;15.90;49.70;98671.03;5048108;28;20392;-68
2023/05/30 00:28:38;;;;;;;6.30;4.32;;;;;;;15.91;49.41;98667.94;5052121;28;20060;-67
2023/05/30 00:31:05;;;;;;;8.05;4.70;;;;;;;15.95;49.32;98667.28;5052105;28;20056;-68
2023/05/30 00:33:31;;;;;;;8.80;4.60;;;;;;;15.97;49.29;98665.00;5050474;28;20483;-68
2023/05/30 00:35:56;;;;;;;7.93;4.82;;;;;;;15.98;49.49;98667.47;5052120;28;20027;-67
2023/05/30 00:38:21;;;;;;;8.07;4.43;;;;;;;16.00;49.94;98661.59;5051743;28;20059;-68
2023/05/30 00:40:47;;;;;;;9.38;4.20;;;;;;;15.99;49.63;98666.31;5051895;28;20053;-68
2023/05/30 00:43:12;;;;;;;7.45;3.85;;;;;;;16.00;50.08;98662.41;5051833;28;20386;-68
2023/05/30 00:45:38;;;;;;;8.23;4.82;;;;;;;15.95;49.57;98662.59;5051929;28;20037;-67
2023/05/30 00:48:05;;;;;;;6.07;4.05;;;;;;;15.94;50.17;98663.72;5051964;28;20029;-67
2023/05/30 00:50:32;;;;;;;7.45;4.72;;;;;;;15.92;50.07;98663.25;5051886;28;20025;-68
2023/05/30 00:52:58;;;;;;;8.18;4.60;;;;;;;15.93;49.83;98664.88;5052217;28;20029;-67
2023/05/30 00:55:26;;;;;;;8.88;4.55;;;;;;;15.90;50.13;98663.53;5050539;28;20036;-67
2023/05/30 00:57:52;;;;;;;8.55;4.97;;;;;;;15.91;50.28;98659.63;5051864;28;20032;-67
2023/05/30 01:00:18;;;;;;;7.82;4.60;;;;;;;15.91;50.33;98658.84;5051998;28;20064;-67
2023/05/30 01:02:44;;;;;;;7.60;4.53;;;;;;;15.89;50.05;98667.47;5051857;28;20056;-67
2023/05/30 01:05:12;;;;;;;6.97;4.20;;;;;;;15.89;50.12;98661.13;5051917;28;20072;-67
2023/05/30 01:07:43;;;;;;;10.27;4.13;;;;;;;15.87;50.65;98661.47;5051928;28;20107;-67
2023/05/30 01:10:10;;;;;;;6.03;4.18;;;;;;;15.86;50.70;98662.59;5052062;28;20086;-67
2023/05/30 01:12:42;;;;;;;5.60;4.20;;;;;;;15.84;50.84;98661.25;5051677;28;20167;-68
2023/05/30 01:15:11;;;;;;;7.75;4.53;;;;;;;15.81;50.55;98657.19;5051722;28;20385;-68
2023/05/30 01:17:50;;;;;;;7.22;4.10;;;;;;;15.77;50.60;98654.25;5051904;28;20024;-67
2023/05/30 01:20:22;;;;;;;10.13;4.97;;;;;;;15.74;50.77;98657.69;5051618;28;20021;-68
2023/05/30 01:23:03;;;;;;;9.35;4.43;;;;;;;15.74;50.46;98657.69;5043565;28;20486;-69
2023/05/30 01:25:28;;;;;;;10.27;4.43;;;;;;;15.72;50.46;98659.94;5040359;28;20040;-67
2023/05/30 01:27:59;;;;;;;8.38;4.55;;;;;;;15.71;50.54;98654.75;5031945;28;20026;-68
2023/05/30 01:30:28;;;;;;;7.47;4.20;;;;;;;15.70;50.66;98653.94;5040068;28;20418;-68
2023/05/30 01:32:54;;;;;;;6.65;4.28;;;;;;;15.67;50.89;98654.59;5051738;28;20024;-68
2023/05/30 01:35:22;;;;;;;7.35;4.63;;;;;;;15.66;50.88;98652.97;5051441;28;20078;-68
2023/05/30 01:37:47;;;;;;;10.07;4.45;;;;;;;15.65;50.78;98656.88;5051662;28;20086;-68
2023/05/30 01:40:16;;;;;;;9.90;4.82;;;;;;;15.65;51.06;98662.41;5051299;28;20057;-69
2023/05/30 01:42:44;;;;;;;9.15;4.60;;;;;;;15.64;51.07;98660.78;5051476;28;20025;-68
2023/05/30 01:45:23;;;;;;;9.10;4.40;;;;;;;15.64;51.04;98660.78;5052233;28;20437;-68
2023/05/30 01:47:52;;;;;;;7.80;4.28;;;;;;;15.63;51.01;98653.63;5054938;28;20037;-69
2023/05/30 01:50:23;;;;;;;6.67;4.13;;;;;;;15.61;51.43;98659.47;5055044;28;20025;-67
2023/05/30 01:52:58;;;;;;;7.85;4.38;;;;;;;15.60;51.30;98665.34;5055193;28;20275;-68
2023/05/30 01:55:25;;;;;;;7.43;4.28;;;;;;;15.59;51.15;98658.97;5053607;28;20032;-68
2023/05/30 01:57:52;;;;;;;7.05;4.30;;;;;;;15.59;51.45;98660.94;5054804;28;20061;-68
2023/05/30 02:00:20;;;;;;;8.50;4.47;;;;;;;15.60;51.30;98666.13;5054680;28;20063;-68
2023/05/30 02:02:45;;;;;;;9.45;4.93;;;;;;;15.60;51.39;98657.84;5054728;28;20682;-68
2023/05/30 02:05:11;;;;;;;8.20;4.40;;;;;;;15.59;51.39;98655.41;5054934;28;20104;-68
2023/05/30 02:07:36;;;;;;;10.65;4.43;;;;;;;15.59;51.47;98660.94;5054687;28;20025;-68
2023/05/30 02:10:02;;;;;;;9.02;4.90;;;;;;;15.56;51.55;98658.81;5054739;28;20111;-68
2023/05/30 02:12:28;;;;;;;8.63;4.22;;;;;;;15.54;51.38;98661.09;5054620;28;20056;-68
2023/05/30 02:14:54;;;;;;;9.57;4.90;;;;;;;15.50;51.54;98660.91;5054338;28;20380;-68
2023/05/30 02:17:21;;;;;;;9.32;5.45;;;;;;;15.47;51.34;98664.34;5054675;28;20128;-68
2023/05/30 02:19:49;;;;;;;8.00;5.10;;;;;;;15.44;51.53;98660.28;5053034;28;20057;-68
2023/05/30 02:22:16;;;;;;;11.30;5.80;;;;;;;15.41;51.87;98652.63;5054441;28;20104;-67
2023/05/30 02:24:41;;;;;;;7.15;4.55;;;;;;;15.38;51.61;98655.25;5054309;28;20064;-67
2023/05/30 02:27:08;;;;;;;9.20;4.97;;;;;;;15.36;52.00;98654.75;5054441;28;20056;-67
2023/05/30 02:29:33;;;;;;;8.20;4.53;;;;;;;15.33;51.75;98650.66;5054431;28;20021;-68
2023/05/30 02:31:58;;;;;;;10.05;5.28;;;;;;;15.28;52.21;98653.59;5054473;28;20354;-67
2023/05/30 02:34:24;;;;;;;9.25;6.30;;;;;;;15.24;51.98;98658.94;5054179;28;20025;-67
2023/05/30 02:36:49;;;;;;;9.13;5.07;;;;;;;15.21;52.16;98653.28;5054130;28;20085;-67
2023/05/30 02:39:15;;;;;;;9.93;4.80;;;;;;;15.16;52.15;98665.25;5053968;28;20343;-67
2023/05/30 02:41:41;;;;;;;9.45;4.07;;;;;;;15.08;52.35;98658.59;5053981;28;20041;-67
2023/05/30 02:44:06;;;;;;;7.90;4.47;;;;;;;15.01;52.35;98658.25;5053995;28;20029;-68
2023/05/30 02:46:33;;;;;;;7.10;4.07;;;;;;;14.96;52.96;98664.75;5053899;28;20437;-68
2023/05/30 02:48:59;;;;;;;8.23;4.18;;;;;;;14.91;52.66;98661.28;5053658;28;20031;-67
2023/05/30 02:51:25;;;;;;;7.28;4.18;;;;;;;14.87;52.89;98666.66;5048864;28;20385;-68
2023/05/30 02:53:51;;;;;;;8.65;4.28;;;;;;;14.84;53.24;98675.56;5033913;28;20029;-68
2023/05/30 02:56:16;;;;;;;8.15;4.20;;;;;;;14.81;53.69;98676.22;5032865;28;20025;-68
2023/05/30 02:58:41;;;;;;;7.15;4.65;;;;;;;14.72;53.22;98677.00;5033739;28;20355;-67
2023/05/30 03:01:07;;;;;;;7.70;4.43;;;;;;;14.67;53.78;98681.81;5033645;28;20029;-68
2023/05/30 03:03:34;;;;;;;8.68;4.88;;;;;;;14.66;53.68;98686.53;5033704;28;20026;-68
2023/05/30 03:06:01;;;;;;;9.10;4.70;;;;;;;14.65;53.48;98689.59;5034663;28;20064;-68
2023/05/30 03:08:28;;;;;;;6.70;4.00;;;;;;;14.64;53.68;98685.22;5053466;28;20116;-68
2023/05/30 03:10:54;;;;;;;8.70;4.75;;;;;;;14.65;53.37;98689.59;5051303;28;20028;-68
2023/05/30 03:13:20;;;;;;;6.43;4.50;;;;;;;14.66;53.35;98691.22;5053307;28;20401;-68
2023/05/30 03:15:45;;;;;;;6.05;4.55;;;;;;;14.67;53.90;98692.84;5053332;28;20074;-68
2023/05/30 03:18:11;;;;;;;8.00;4.53;;;;;;;14.67;53.56;98698.38;5053340;28;20465;-68
2023/05/30 03:20:36;;;;;;;10.05;4.75;;;;;;;14.63;53.86;98695.44;5053248;28;20029;-69
2023/05/30 03:23:02;;;;;;;9.02;4.57;;;;;;;14.63;53.93;98705.66;5051837;28;20074;-67
2023/05/30 03:25:28;;;;;;;12.07;7.97;;;;;;;14.61;53.93;98702.41;5053249;28;20437;-69
2023/05/30 03:27:53;;;;;;;10.32;5.80;;;;;;;14.61;53.97;98702.41;5053416;28;20108;-68
2023/05/30 03:30:22;;;;;;;8.30;5.22;;;;;;;14.62;54.01;98701.28;5053348;28;20036;-68
2023/05/30 03:32:48;;;;;;;7.25;5.53;;;;;;;14.63;54.08;98700.16;5053006;28;20066;-68
2023/05/30 03:35:16;;;;;;;7.38;5.10;;;;;;;14.62;54.15;98702.09;5052905;28;20032;-68
2023/05/30 03:37:41;;;;;;;8.00;4.88;;;;;;;14.62;53.89;98701.28;5052822;28;20029;-68
2023/05/30 03:40:08;;;;;;;7.68;4.60;;;;;;;14.62;53.98;98702.09;5052482;28;20132;-67
2023/05/30 03:42:34;;;;;;;8.48;5.30;;;;;;;14.63;54.26;98702.91;5052919;28;20025;-68
2023/05/30 03:45:00;;;;;;;8.52;4.72;;;;;;;14.64;54.02;98707.28;5052768;28;20025;-68
2023/05/30 03:47:26;;;;;;;9.23;4.57;;;;;;;14.65;53.99;98701.47;5052821;28;20025;-68
2023/05/30 03:49:52;;;;;;;9.43;4.93;;;;;;;14.68;54.53;98702.78;5052611;28;20029;-68
2023/05/30 03:52:17;;;;;;;10.77;4.93;;;;;;;14.69;54.28;98709.94;5052765;28;20029;-68
2023/05/30 03:54:44;;;;;;;7.53;4.60;;;;;;;14.70;54.37;98706.06;5052598;28;20493;-68
2023/05/30 03:57:10;;;;;;;8.80;4.82;;;;;;;14.71;54.56;98708.50;5052646;28;20037;-67
2023/05/30 03:59:36;;;;;;;7.53;5.45;;;;;;;14.72;54.52;98712.88;5052557;28;20377;-68
2023/05/30 04:02:01;;;;;;;8.45;5.13;;;;;;;14.74;54.49;98707.84;5052316;28;20521;-68
2023/05/30 04:04:27;;;;;;;9.65;5.43;;;;;;;14.77;54.79;98717.47;5052564;28;20025;-68
2023/05/30 04:06:53;;;;;;;10.52;5.18;;;;;;;14.76;54.88;98720.53;5052335;28;20048;-68
2023/05/30 04:09:19;;;;;;;8.73;4.97;;;;;;;14.76;55.23;98717.75;5052714;28;20029;-68
2023/05/30 04:11:45;;;;;;;9.73;5.47;;;;;;;14.76;54.99;98723.28;5052437;28;20385;-68
2023/05/30 04:14:10;;;;;;;8.73;5.43;;;;;;;14.76;54.93;98720.53;5052213;28;20492;-68
2023/05/30 04:16:36;;;;;;;8.60;5.78;;;;;;;14.76;54.91;98729.63;5052320;28;20100;-68
2023/05/30 04:19:01;;;;;;;12.98;5.60;;;;;;;14.77;55.37;98727.69;5052113;28;20021;-68
2023/05/30 04:21:27;;;;;;;10.57;5.50;;;;;;;14.77;55.11;98725.75;5052151;28;20029;-68
2023/05/30 04:23:52;;;;;;;9.52;5.65;;;;;;;14.78;55.44;98732.91;5052281;28;20128;-69
2023/05/30 04:26:18;;;;;;;8.98;5.85;;;;;;;14.76;55.71;98731.56;5052208;28;20082;-69
2023/05/30 04:28:43;;;;;;;8.43;5.50;;;;;;;14.76;55.63;98737.09;5052202;28;20032;-68
2023/05/30 04:31:10;;;;;;;10.25;5.45;;;;;;;14.80;55.90;98735.31;5052452;28;20027;-68
2023/05/30 04:33:37;;;;;;;9.90;5.40;;;;;;;14.83;55.84;98743.81;5052156;28;20108;-68
2023/05/30 04:36:08;;;;;;;10.20;5.88;;;;;;;14.85;55.81;98740.72;5051858;28;20037;-68
2023/05/30 04:38:34;;;;;;;9.13;5.68;;;;;;;14.90;55.71;98743.34;5052118;28;20366;-67
2023/05/30 04:41:02;;;;;;;11.35;5.68;;;;;;;14.94;56.13;98749.03;5051920;28;20485;-68
2023/05/30 04:43:31;;;;;;;10.90;5.60;;;;;;;14.95;56.10;98745.97;5052157;28;20032;-68
2023/05/30 04:46:00;;;;;;;10.98;5.80;;;;;;;14.98;55.93;98748.09;5051984;28;20401;-68
2023/05/30 04:48:27;;;;;;;8.95;5.68;;;;;;;15.00;55.99;98747.75;5051882;28;20035;-68
2023/05/30 04:50:53;;;;;;;9.75;5.68;;;;;;;15.02;56.20;98751.03;5051961;28;20097;-68
2023/05/30 04:53:20;;;;;;;8.77;5.55;;;;;;;15.03;55.93;98749.88;5051775;28;20473;-68
2023/05/30 04:55:46;;;;;;;9.93;5.60;;;;;;;15.06;55.93;98757.53;5051840;28;20465;-68
2023/05/30 04:58:13;;;;;;;8.25;5.55;;;;;;;15.11;56.34;98759.34;5051782;28;20032;-68
2023/05/30 05:00:39;;;;;;;13.10;6.18;;;;;;;15.13;56.50;98760.66;5051239;28;20025;-68
2023/05/30 05:03:05;;;;;;;8.45;5.38;;;;;;;15.17;56.51;98756.13;5051882;28;20036;-68
2023/05/30 05:05:31;;;;;;;10.70;5.70;;;;;;;15.22;56.59;98757.91;5050523;28;20025;-68
2023/05/30 05:07:56;;;;;;;9.30;5.60;;;;;;;15.24;56.32;98763.94;5051790;28;20036;-67
2023/05/30 05:10:22;;;;;;;12.52;5.85;;;;;;;15.23;56.39;98764.28;5051567;28;20104;-67
2023/05/30 05:12:47;;;;;;;13.27;5.30;;;;;;;15.23;56.68;98756.78;5051661;28;20086;-68
2023/05/30 05:15:13;;;;;;;11.02;5.55;;;;;;;15.26;56.58;98763.63;5051813;28;20036;-68
2023/05/30 05:17:38;;;;;;;11.55;5.72;;;;;;;15.27;56.72;98755.00;5052011;28;20039;-68
2023/05/30 05:20:08;;;;;;;9.43;5.30;;;;;;;15.30;56.58;98761.84;5053903;28;20496;-68
2023/05/30 05:22:34;;;;;;;9.27;5.82;;;;;;;15.34;56.67;98765.59;5055605;28;20028;-68
2023/05/30 05:25:00;;;;;;;10.73;5.75;;;;;;;15.37;56.82;98770.47;5055498;28;20017;-68
2023/05/30 05:27:27;;;;;;;13.55;5.70;;;;;;;15.39;56.82;98770.97;5055473;28;20109;-68
2023/05/30 05:29:52;;;;;;;9.43;5.18;;;;;;;15.40;57.70;98767.06;5055618;28;20021;-68
2023/05/30 05:32:18;;;;;;;8.63;5.63;;;;;;;15.38;56.96;98772.09;5055280;28;20494;-68
2023/05/30 05:34:43;;;;;;;14.30;5.80;;;;;;;15.40;56.98;98772.59;5055473;28;20039;-68
2023/05/30 05:37:09;;;;;;;14.90;6.05;;;;;;;15.44;57.31;98779.13;5055407;28;20025;-68
2023/05/30 05:39:34;;;;;;;10.27;5.45;;;;;;;15.47;57.04;98781.25;5055126;28;20053;-69
2023/05/30 05:42:01;;;;;;;9.68;6.28;;;;;;;15.52;56.62;98773.94;5055561;28;20094;-68
2023/05/30 05:44:27;;;;;;;10.38;5.68;;;;;;;15.55;56.95;98787.13;5055154;28;20025;-68
2023/05/30 05:46:52;;;;;;;7.85;5.13;;;;;;;15.59;56.98;98782.59;5055077;28;20039;-68
2023/05/30 05:49:18;;;;;;;10.57;5.72;;;;;;;15.64;56.82;98782.44;5054796;28;20033;-68
2023/05/30 05:51:44;;;;;;;10.10;5.43;;;;;;;15.69;56.69;98785.03;5055245;28;20052;-68
2023/05/30 05:54:10;;;;;;;8.73;5.85;;;;;;;15.74;57.04;98795.13;5054867;28;20024;-68
2023/05/30 05:56:36;;;;;;;10.48;5.95;;;;;;;15.81;56.94;98798.25;5055138;28;20031;-68
2023/05/30 05:59:01;;;;;;;13.25;5.68;;;;;;;15.85;57.00;98801.16;5054843;28;20052;-68
2023/05/30 06:01:27;;;;;;;9.00;5.20;;;;;;;15.90;57.34;98803.81;5054450;28;20029;-68
2023/05/30 06:03:52;;;;;;;8.88;5.57;;;;;;;15.95;56.87;98803.66;5052663;28;20029;-68
2023/05/30 06:06:17;;;;;;;9.85;5.68;;;;;;;15.98;56.84;98808.53;5047784;28;20087;-68
2023/05/30 06:08:45;;;;;;;11.63;5.90;;;;;;;16.02;57.02;98809.53;5047744;28;20029;-68
2023/05/30 06:11:10;;;;;;;8.00;5.53;;;;;;;16.09;57.24;98805.47;5048799;28;20381;-68
2023/05/30 06:13:36;;;;;;;11.20;6.15;;;;;;;16.10;57.18;98804.31;5054651;28;20035;-68
2023/05/30 06:16:01;;;;;;;10.52;5.55;;;;;;;16.13;56.87;98820.25;5054506;28;20033;-68
2023/05/30 06:18:27;;;;;;;9.20;5.45;;;;;;;16.19;57.23;98813.41;5054697;28;20033;-68
2023/05/30 06:20:52;;;;;;;9.32;5.35;;;;;;;16.26;56.74;98815.72;5054757;28;20040;-67
2023/05/30 06:23:19;;;;;;;14.30;5.72;;;;;;;16.33;56.55;98822.38;5054816;28;20405;-68
2023/05/30 06:25:45;;;;;;;7.93;5.88;;;;;;;16.41;56.73;98825.47;5054521;28;20021;-68
2023/05/30 06:28:10;;;;;;;14.20;6.07;;;;;;;16.45;56.50;98818.97;5054305;28;20036;-68
2023/05/30 06:30:36;;;;;;;11.10;5.40;;;;;;;16.51;56.86;98822.38;5054079;28;20029;-68
2023/05/30 06:33:01;;;;;;;12.68;5.57;;;;;;;16.59;56.28;98829.84;5054271;28;20033;-68
2023/05/30 06:35:26;;;;;;;11.38;5.63;;;;;;;16.64;56.65;98829.69;5054110;28;20508;-68
2023/05/30 06:37:52;;;;;;;12.43;6.20;;;;;;;16.70;56.10;98827.59;5054321;28;20025;-68
2023/05/30 06:40:17;;;;;;;10.35;5.43;;;;;;;16.74;56.03;98836.84;5053862;28;20053;-68
2023/05/30 06:42:43;;;;;;;6.53;5.18;;;;;;;16.79;56.15;98831.13;5054030;28;20565;-68
2023/05/30 06:45:09;;;;;;;10.43;5.65;;;;;;;16.84;56.11;98835.69;5054249;28;20118;-68
2023/05/30 06:47:34;;;;;;;11.27;5.68;;;;;;;16.92;55.96;98842.34;5054023;28;20021;-68
2023/05/30 06:49:59;;;;;;;10.02;5.35;;;;;;;16.96;56.01;98844.16;5053741;28;20108;-68
2023/05/30 06:52:25;;;;;;;9.60;5.80;;;;;;;17.03;55.97;98840.91;5053825;28;20017;-68
2023/05/30 06:54:50;;;;;;;8.10;4.90;;;;;;;17.07;55.87;98843.81;5053718;28;20032;-68
2023/05/30 06:57:16;;;;;;;9.70;6.00;;;;;;;17.14;55.76;98846.06;5054053;28;20013;-68
2023/05/30 06:59:41;;;;;;;10.35;4.85;;;;;;;17.19;55.43;98843.94;5052446;28;20025;-68
2023/05/30 07:02:07;;;;;;;11.35;5.20;;;;;;;17.26;55.66;98847.03;5053744;28;20025;-68
2023/05/30 07:04:33;;;;;;;10.55;5.40;;;;;;;17.36;55.37;98853.31;5053456;28;20025;-68
2023/05/30 07:06:58;;;;;;;9.10;4.75;;;;;;;17.38;55.03;98849.09;5053547;28;20036;-68
2023/05/30 07:09:24;;;;;;;8.75;5.20;;;;;;;17.44;55.11;98855.25;5053535;28;20466;-69
2023/05/30 07:11:51;;;;;;;9.18;4.70;;;;;;;17.46;55.09;98852.16;5053483;28;20363;-68
2023/05/30 07:14:17;;;;;;;12.02;5.13;;;;;;;17.53;54.93;98849.66;5053490;28;20029;-68
2023/05/30 07:16:42;;;;;;;9.48;5.05;;;;;;;17.58;55.13;98851.47;5053363;28;20036;-68
2023/05/30 07:19:08;;;;;;;8.50;5.10;;;;;;;17.62;55.00;98858.75;5053654;28;20036;-68
2023/05/30 07:21:33;;;;;;;9.25;5.70;;;;;;;17.65;54.97;98854.53;5053246;28;20047;-68
2023/05/30 07:23:58;;;;;;;8.70;4.43;;;;;;;17.68;54.93;98856.63;5052480;28;20021;-68
2023/05/30 07:26:24;;;;;;;6.97;4.60;;;;;;;17.71;54.58;98854.00;5051519;28;20094;-68
2023/05/30 07:28:49;;;;;;;6.80;4.50;;;;;;;17.77;54.24;98853.81;5045377;28;20029;-68
2023/05/30 07:31:15;;;;;;;8.65;4.70;;;;;;;17.79;54.27;98849.53;5048933;28;20033;-69
2023/05/30 07:33:40;;;;;;;8.85;4.47;;;;;;;17.86;54.23;98852.59;5034139;28;20022;-68
2023/05/30 07:36:07;;;;;;;10.18;5.50;;;;;;;17.95;54.31;98848.97;5053073;28;20072;-68
2023/05/30 07:38:33;;;;;;;8.85;4.90;;;;;;;17.96;54.49;98856.94;5053351;28;20035;-68
2023/05/30 07:40:58;;;;;;;8.07;4.88;;;;;;;17.94;54.20;98855.66;5053395;28;20053;-68
2023/05/30 07:43:24;;;;;;;8.25;5.05;;;;;;;17.96;54.26;98856.16;5053134;28;20381;-69
2023/05/30 07:45:49;;;;;;;8.52;4.55;;;;;;;17.99;54.20;98855.50;5053428;28;20044;-69
2023/05/30 07:48:15;;;;;;;7.68;4.40;;;;;;;18.00;53.88;98860.72;5053650;28;20033;-68
2023/05/30 07:50:40;;;;;;;8.18;4.85;;;;;;;17.99;53.47;98869.38;5053625;28;20385;-68
2023/05/30 07:53:06;;;;;;;8.80;5.25;;;;;;;17.96;53.10;98875.56;5053423;28;20017;-67
2023/05/30 07:55:31;;;;;;;8.43;5.38;;;;;;;17.91;53.50;98876.59;5044153;28;20024;-68
2023/05/30 07:57:56;;;;;;;7.95;5.15;;;;;;;17.92;53.34;98869.06;5042222;28;20370;-68
2023/05/30 08:00:23;;;;;;;10.75;4.93;;;;;;;17.91;53.31;98864.66;5032144;28;20017;-68
2023/05/30 08:02:48;;;;;;;7.57;5.10;;;;;;;17.92;53.36;98877.38;5043886;28;20126;-68
2023/05/30 08:05:14;;;;;;;10.18;4.72;;;;;;;17.94;53.41;98872.31;5053305;28;20121;-68
2023/05/30 08:07:39;;;;;;;9.82;4.95;;;;;;;17.97;53.32;98875.22;5053225;28;20025;-70
2023/05/30 08:10:05;;;;;;;9.65;5.35;;;;;;;17.99;53.04;98870.19;5053328;28;20024;-68
2023/05/30 08:12:31;;;;;;;8.35;4.85;;;;;;;18.03;53.05;98875.88;5053419;28;20024;-69
2023/05/30 08:14:56;;;;;;;7.57;4.30;;;;;;;18.05;53.23;98867.22;5052385;28;20432;-69
2023/05/30 08:17:27;;;;;;;11.93;5.07;;;;;;;18.07;53.32;98874.06;5052809;28;20100;-69
2023/05/30 08:19:53;;;;;;;8.63;4.97;;;;;;;18.08;52.80;98878.47;5046107;28;20476;-69
2023/05/30 08:22:23;;;;;;;8.10;4.72;;;;;;;18.08;52.90;98875.69;5046146;28;20033;-68
2023/05/30 08:24:54;;;;;;;12.80;4.82;;;;;;;18.10;52.75;98873.41;5053236;28;20021;-68
2023/05/30 08:27:21;;;;;;;12.70;4.88;;;;;;;18.13;52.78;98869.94;5052941;28;20036;-68
2023/05/30 08:29:49;;;;;;;8.38;4.90;;;;;;;18.18;52.43;98868.09;5052959;28;20028;-69
2023/05/30 08:32:15;;;;;;;8.48;4.72;;;;;;;18.19;52.34;98866.94;5051918;28;20021;-69
2023/05/30 08:34:41;;;;;;;10.20;4.80;;;;;;;18.20;52.34;98872.19;5045811;28;20044;-69
2023/05/30 08:37:07;;;;;;;9.77;4.75;;;;;;;18.22;52.09;98874.59;5053126;28;20029;-69
2023/05/30 08:39:33;;;;;;;6.78;4.57;;;;;;;18.24;51.92;98877.88;5035374;28;20018;-68
2023/05/30 08:41:59;;;;;;;9.07;4.97;;;;;;;18.29;51.88;98878.50;5033240;28;20036;-69
2023/05/30 08:44:25;;;;;;;10.20;5.05;;;;;;;18.32;51.93;98876.19;5032782;28;20037;-68
2023/05/30 08:46:51;;;;;;;8.18;4.57;;;;;;;18.37;51.81;98879.56;5035197;28;20037;-68
2023/05/30 08:49:20;;;;;;;9.02;5.28;;;;;;;18.36;51.34;98875.16;5047001;28;20172;-67
2023/05/30 08:51:50;;;;;;;9.90;4.75;;;;;;;18.36;51.58;98871.56;5041395;28;20116;-69
2023/05/30 08:54:17;;;;;;;9.82;4.50;;;;;;;18.40;51.98;98866.97;5035076;28;20084;-68
2023/05/30 08:56:49;;;;;;;9.18;4.90;;;;;;;18.49;52.00;98867.72;5036604;28;20080;-67
2023/05/30 08:59:18;;;;;;;7.55;4.50;;;;;;;18.58;51.70;98871.22;5036859;28;20104;-68
2023/05/30 09:01:45;;;;;;;6.57;4.05;;;;;;;18.67;51.69;98868.38;5036790;28;20021;-67
2023/05/30 09:04:13;;;;;;;8.00;4.05;;;;;;;18.79;51.48;98873.16;5047142;28;20033;-69
2023/05/30 09:06:39;;;;;;;10.93;3.90;;;;;;;18.87;50.09;98868.69;5049356;28;20071;-68
2023/05/30 09:09:09;;;;;;;8.48;3.88;;;;;;;18.92;49.39;98874.03;5042666;28;20485;-69
2023/05/30 09:11:34;;;;;;;4.55;2.85;;;;;;;18.98;49.50;98863.53;5048789;28;20082;-70
2023/05/30 09:14:00;;;;;;;6.30;3.78;;;;;;;19.04;49.00;98867.75;5045989;28;20029;-69
2023/05/30 09:16:25;;;;;;;8.85;3.80;;;;;;;19.11;49.47;98859.66;5036222;28;20079;-70
2023/05/30 09:18:51;;;;;;;8.52;4.15;;;;;;;19.23;49.36;98869.16;5036514;28;20025;-68
2023/05/30 09:21:17;;;;;;;7.07;3.63;;;;;;;19.29;47.94;98865.84;5036540;28;20151;-71
2023/05/30 09:23:42;;;;;;;4.82;2.85;;;;;;;19.31;46.60;98869.09;5036420;28;20030;-68
2023/05/30 09:26:11;;;;;;;6.55;3.63;;;;;;;19.36;47.18;98868.03;5035265;28;20025;-68
2023/05/30 09:28:36;;;;;;;6.90;3.35;;;;;;;19.48;47.86;98861.66;5036180;28;20037;-69
2023/05/30 09:31:03;;;;;;;4.97;3.10;;;;;;;19.62;47.65;98864.09;5044044;28;20040;-70
2023/05/30 09:33:50;;;;;;;4.32;3.25;;;;;;;19.72;47.51;98862.84;5049499;28;20029;-68
2023/05/30 09:36:20;;;;;;;5.50;3.47;;;;;;;19.79;46.51;98866.66;5043337;28;20513;-69
2023/05/30 09:39:01;;;;;;;7.63;3.30;;;;;;;19.83;47.10;98863.19;5036068;28;20052;-68
2023/05/30 09:41:27;;;;;;;7.60;3.55;;;;;;;19.85;46.36;98863.66;5035901;28;20107;-70
2023/05/30 09:43:54;;;;;;;3.65;2.58;;;;;;;19.88;46.00;98854.63;5036065;28;20462;-69
2023/05/30 09:46:23;;;;;;;3.45;2.55;;;;;;;19.89;45.73;98861.84;5035802;28;20037;-68
2023/05/30 09:48:49;;;;;;;;;;;;;;;19.91;45.80;98865.88;5042007;28;20029;-68
2023/05/30 09:51:15;;;;;;;9.38;2.72;;;;;;;19.97;45.57;98854.50;5049172;28;19912;-70
2023/05/30 09:53:59;;;;;;;5.18;2.75;;;;;;;20.02;45.53;98866.22;5055830;28;20052;-70
2023/05/30 09:56:32;;;;;;;6.25;2.60;;;;;;;20.08;44.67;98864.03;5055464;28;20021;-69
2023/05/30 09:59:00;;;;;;;6.35;2.90;;;;;;;20.09;44.13;98860.06;5055729;28;20033;-69
2023/05/30 10:01:34;;;;;;;6.75;2.92;;;;;;;20.14;44.18;98862.63;5055627;28;20035;-68
2023/05/30 10:03:59;;;;;;;4.55;2.50;;;;;;;20.20;43.95;98858.41;5054422;28;20100;-68
2023/05/30 10:06:26;;;;;;;4.03;2.30;;;;;;;20.25;43.87;98857.38;5054842;28;20163;-67
2023/05/30 10:08:52;;;;;;;5.15;2.53;;;;;;;20.35;42.85;98856.06;5055051;28;20559;-68
2023/05/30 10:11:18;;;;;;;4.90;2.97;;;;;;;20.37;42.86;98862.09;5055513;28;20029;-68
2023/05/30 10:13:43;;;;;;;4.47;2.53;;;;;;;20.46;43.39;98856.38;5054885;28;20021;-68
2023/05/30 10:16:16;;;;;;;5.68;2.70;;;;;;;20.58;43.54;98866.69;5054111;28;20025;-68
2023/05/30 10:18:48;;;;;;;5.25;3.35;;;;;;;20.65;41.81;98867.69;5051926;28;20051;-69
2023/05/30 10:21:14;;;;;;;9.35;3.00;;;;;;;20.68;42.83;98872.56;5052780;28;20151;-70
2023/05/30 10:23:41;;;;;;;3.75;2.53;;;;;;;20.70;41.90;98866.63;5055150;28;20083;-70
2023/05/30 10:26:09;;;;;;;7.35;2.55;;;;;;;20.66;41.23;98868.50;5054118;28;20036;-70
2023/05/30 10:28:35;;;;;;;3.03;2.25;;;;;;;20.64;41.94;98868.88;5055268;28;20104;-72
2023/05/30 10:31:03;;;;;;;7.15;2.97;;;;;;;20.64;41.67;98868.03;5049833;28;20025;-68
2023/05/30 10:33:34;;;;;;;5.70;2.40;;;;;;;20.67;40.59;98867.34;5044072;28;20037;-69
2023/05/30 10:36:02;;;;;;;5.40;2.92;;;;;;;20.66;41.33;98865.72;5039733;28;20025;-68
2023/05/30 10:38:31;;;;;;;5.78;2.45;;;;;;;20.70;40.51;98858.25;5054486;28;20428;-67
2023/05/30 10:41:07;;;;;;;6.60;2.80;;;;;;;20.71;40.70;98859.88;5054945;28;20099;-68
2023/05/30 10:43:40;;;;;;;5.32;2.50;;;;;;;20.72;40.47;98850.34;5049742;28;20468;-67
2023/05/30 10:46:32;;;;;;;7.13;2.80;;;;;;;20.74;41.17;98861.16;5053312;28;20140;-67
2023/05/30 10:49:05;;;;;;;5.00;2.50;;;;;;;20.76;39.93;98853.25;5053503;28;20033;-69
2023/05/30 10:52:01;;;;;;;5.05;2.53;;;;;;;20.80;41.01;98852.22;5047763;28;20021;-69
2023/05/30 10:54:30;;;;;;;6.65;2.55;;;;;;;20.94;41.21;98854.59;5052679;28;20025;-71
2023/05/30 10:56:56;;;;;;;6.22;2.35;;;;;;;21.03;41.10;98856.41;5047179;28;20103;-67
2023/05/30 10:59:22;;;;;;;5.40;2.65;;;;;;;21.07;40.59;98851.75;5053334;28;20108;-68
2023/05/30 11:02:05;;;;;;;5.95;2.80;;;;;;;21.14;40.67;98853.91;5042743;28;20026;-67
2023/05/30 11:04:36;;;;;;;7.72;3.05;;;;;;;21.18;40.07;98854.81;5057517;28;20032;-67
2023/05/30 11:07:05;;;;;;;5.68;2.58;;;;;;;21.17;38.86;98855.97;5051563;28;20037;-67
2023/05/30 11:09:31;;;;;;;5.85;2.38;;;;;;;21.17;39.74;98850.41;5047646;28;20468;-68
2023/05/30 11:11:59;;;;;;;4.10;2.47;;;;;;;21.26;40.17;98849.06;5050227;28;20035;-70
2023/05/30 11:14:26;;;;;;;4.13;2.10;;;;;;;21.38;39.82;98850.16;5041154;28;20035;-69
2023/05/30 11:16:54;;;;;;;3.72;2.25;;;;;;;21.47;39.60;98850.78;5044033;28;20389;-69
2023/05/30 11:19:20;;;;;;;4.93;2.88;;;;;;;21.52;39.52;98852.47;5038264;28;20025;-69
2023/05/30 11:21:59;;;;;;;7.65;2.60;;;;;;;21.51;38.45;98857.25;5052545;28;20036;-68
2023/05/30 11:24:26;;;;;;;4.65;2.95;;;;;;;21.55;39.25;98846.19;5051309;28;20056;-66
2023/05/30 11:26:53;;;;;;;4.85;2.40;;;;;;;21.59;37.75;98847.09;5053167;28;20033;-67
2023/05/30 11:29:30;;;;;;;3.63;2.40;;;;;;;21.58;37.82;98848.25;5054272;28;20061;-67
2023/05/30 11:31:56;;;;;;;4.35;2.67;;;;;;;21.57;37.25;98843.84;5052564;28;20021;-68